»·PEaware :: UAL1399 KLAX-KSFO

UAL1399 :: KLAX-KSFO

FLIGHT INFORMATION

Flight Status: Arrived
Operator:
United Airlines
More flights by this operator :: More flights under this callsign
Pilot: David C. (16084)
Aircraft: AIRBUS A320
(A320)
More flights by this aircraft type
Origin: KLAX Los Angeles Intl
United States
Destination: KSFO San Francisco Intl
United States
More flights between these airports :: More routes between these airports
Route: +SUMMR1 STOKD SERFR SERFR3
File this flight plan on PilotEdge
Remarks:
Altitude:
(Current/Filed)
32,000ft
Speed:
(Current/Filed)
471kts
Departed: 01-May-18 10:58 AM
Arrived: 01-May-18 11:52 AM
Distance/Time
Traveled:
293nm/0:54
Distance/Time
To Go:
Arrived

Flight Plot

Page will automatically refresh every two minutes.

Flight plan parsing failed; only flown route is shown


Map Options




Map Legend


Flown Route
Filed Route
Departure Airport
Arrival Airport
Navaid (VOR, NDB)
Fix

Horizontal Profiles

Position Reports

Time Latitude Longitude Heading Altitude Ground
Speed
01-May-18 10:24 33.941291 -118.397650 83 134ft 0kts
01-May-18 10:25 33.941291 -118.397650 83 134ft 0kts
01-May-18 10:26 33.941291 -118.397650 83 134ft 0kts
01-May-18 10:27 33.941291 -118.397650 83 134ft 0kts
01-May-18 10:28 33.941291 -118.397650 83 134ft 0kts
01-May-18 10:29 33.941291 -118.397650 83 134ft 0kts
01-May-18 10:30 33.941291 -118.397650 83 134ft 0kts
01-May-18 10:31 33.941291 -118.397650 83 134ft 0kts
01-May-18 10:32 33.941291 -118.397650 83 134ft 0kts
01-May-18 10:33 33.941291 -118.397650 83 134ft 0kts
01-May-18 10:34 33.941291 -118.397650 83 134ft 0kts
01-May-18 10:35 33.941291 -118.397650 83 134ft 0kts
01-May-18 10:36 33.941291 -118.397650 83 134ft 0kts
01-May-18 10:37 33.941291 -118.397650 83 134ft 0kts
01-May-18 10:38 33.941291 -118.397650 83 134ft 0kts
01-May-18 10:39 33.941291 -118.397650 83 134ft 0kts
01-May-18 10:40 33.941291 -118.397650 83 134ft 0kts
01-May-18 10:41 33.941310 -118.398282 134 134ft 2kts
01-May-18 10:42 33.941618 -118.398412 170 134ft 0kts
01-May-18 10:43 33.941647 -118.398418 170 134ft 0kts
01-May-18 10:44 33.941647 -118.398418 170 134ft 0kts
01-May-18 10:45 33.941647 -118.398418 170 134ft 0kts
01-May-18 10:46 33.941647 -118.398418 170 134ft 0kts
01-May-18 10:47 33.941647 -118.398418 170 134ft 0kts
01-May-18 10:48 33.941647 -118.398418 170 134ft 0kts
01-May-18 10:49 33.941647 -118.398418 170 134ft 0kts
01-May-18 10:50 33.940415 -118.398137 170 134ft 17kts
01-May-18 10:51 33.939359 -118.394264 83 134ft 17kts
01-May-18 10:52 33.939990 -118.388024 83 134ft 21kts
01-May-18 10:53 33.939490 -118.383159 174 134ft 13kts
01-May-18 10:54 33.938443 -118.383023 172 134ft 0kts
01-May-18 10:55 33.938443 -118.383023 172 134ft 0kts
01-May-18 10:56 33.937257 -118.383677 260 134ft 13kts
01-May-18 10:57 33.933509 -118.423432 262 1009ft 197kts
01-May-18 10:58 33.928914 -118.492513 265 4345ft 217kts
01-May-18 10:59 33.922609 -118.571119 262 6961ft 271kts
01-May-18 11:00 33.917730 -118.657635 269 10306ft 282kts
01-May-18 11:01 33.917368 -118.761121 269 11821ft 351kts
01-May-18 11:02 33.918683 -118.886327 272 12381ft 393kts
01-May-18 11:03 33.926293 -119.016726 288 14447ft 399kts
01-May-18 11:04 33.982066 -119.132075 302 16235ft 407kts
01-May-18 11:05 34.054423 -119.224575 323 17740ft 416kts
01-May-18 11:06 34.145755 -119.303035 323 19171ft 424kts
01-May-18 11:07 34.241315 -119.385479 323 20508ft 432kts
01-May-18 11:08 34.338903 -119.469892 323 21722ft 439kts
01-May-18 11:09 34.434018 -119.560521 314 22813ft 444kts
01-May-18 11:10 34.520486 -119.666960 313 23797ft 450kts
01-May-18 11:11 34.608184 -119.775143 313 24704ft 454kts
01-May-18 11:12 34.695752 -119.883525 313 25831ft 451kts
01-May-18 11:13 34.782759 -119.991547 313 26998ft 448kts
01-May-18 11:14 34.869036 -120.099003 313 28178ft 445kts
01-May-18 11:15 34.955214 -120.206672 314 29116ft 448kts
01-May-18 11:17 35.042750 -120.316372 315 29749ft 457kts
01-May-18 11:18 35.132101 -120.422482 318 30840ft 453kts
01-May-18 11:19 35.224123 -120.525672 318 31950ft 450kts
01-May-18 11:20 35.316017 -120.629017 318 32048ft 449kts
01-May-18 11:21 35.407415 -120.732127 318 32047ft 450kts
01-May-18 11:22 35.500659 -120.834112 323 32041ft 449kts
01-May-18 11:23 35.600146 -120.926347 323 32039ft 449kts
01-May-18 11:24 35.699255 -121.018482 323 32046ft 445kts
01-May-18 11:25 35.795642 -121.108768 325 32042ft 430kts
01-May-18 11:26 35.889541 -121.196653 326 32042ft 421kts
01-May-18 11:27 35.981798 -121.283265 326 31996ft 415kts
01-May-18 11:28 36.075200 -121.369681 329 31079ft 421kts
01-May-18 11:29 36.171413 -121.445065 331 29912ft 416kts
01-May-18 11:30 36.268935 -121.521325 330 26744ft 423kts
01-May-18 11:31 36.366983 -121.598225 330 24279ft 407kts
01-May-18 11:32 36.455818 -121.668225 330 23491ft 358kts
01-May-18 11:33 36.535269 -121.730881 330 22242ft 331kts
01-May-18 11:34 36.610616 -121.790420 330 20502ft 321kts
01-May-18 11:35 36.684273 -121.848796 330 18772ft 314kts
01-May-18 11:36 36.758965 -121.899158 348 17051ft 305kts
01-May-18 11:37 36.839541 -121.921541 347 15414ft 299kts
01-May-18 11:38 36.917551 -121.943374 347 13857ft 294kts
01-May-18 11:39 36.990353 -121.968106 343 12356ft 291kts
01-May-18 11:40 37.067325 -121.998108 343 10761ft 290kts
01-May-18 11:41 37.139212 -122.026234 343 10074ft 263kts
01-May-18 11:42 37.207035 -122.052790 343 8956ft 253kts
01-May-18 11:43 37.272770 -122.078550 343 7980ft 246kts
01-May-18 11:44 37.337744 -122.104119 343 6749ft 249kts
01-May-18 11:44 37.393127 -122.125374 345 5504ft 257kts
01-May-18 11:46 37.472312 -122.152279 345 3805ft 244kts
01-May-18 11:46 37.523131 -122.169859 340 3271ft 213kts
01-May-18 11:48 37.560791 -122.236904 299 2195ft 184kts
01-May-18 11:49 37.581179 -122.285568 299 1314ft 134kts
01-May-18 11:50 37.597327 -122.324080 298 657ft 129kts
01-May-18 11:51 37.613766 -122.363302 298 32ft 122kts
01-May-18 11:52 37.619580 -122.379388 236 22ft 11kts
01-May-18 11:53 37.619318 -122.379878 236 22ft 5kts
01-May-18 11:54 37.619124 -122.383292 291 22ft 5kts
01-May-18 11:54 37.619197 -122.383543 289 22ft 0kts

Navigation Log

Ident Type
Flight plan parsing failed, navigation log unavailable